sensor_id;sensor_type;location;lat;lon;timestamp;P1;durP1;ratioP1;P2;durP2;ratioP2
68455;SDS011;55437;55.046;38.838;2023-04-06T00:01:00;12.38;;;6.43;;
68455;SDS011;55437;55.046;38.838;2023-04-06T00:03:27;12.05;;;4.32;;
68455;SDS011;55437;55.046;38.838;2023-04-06T00:05:55;11.73;;;4.47;;
68455;SDS011;55437;55.046;38.838;2023-04-06T00:08:22;9.70;;;4.47;;
68455;SDS011;55437;55.046;38.838;2023-04-06T00:10:50;12.13;;;4.38;;
68455;SDS011;55437;55.046;38.838;2023-04-06T00:13:16;12.25;;;5.85;;
68455;SDS011;55437;55.046;38.838;2023-04-06T00:16:09;9.50;;;4.22;;
68455;SDS011;55437;55.046;38.838;2023-04-06T00:18:35;12.27;;;4.35;;
68455;SDS011;55437;55.046;38.838;2023-04-06T00:21:02;9.70;;;4.28;;
68455;SDS011;55437;55.046;38.838;2023-04-06T00:23:28;11.55;;;4.45;;
68455;SDS011;55437;55.046;38.838;2023-04-06T00:25:55;9.55;;;4.53;;
68455;SDS011;55437;55.046;38.838;2023-04-06T00:28:21;9.98;;;4.28;;
68455;SDS011;55437;55.046;38.838;2023-04-06T00:30:51;10.35;;;4.53;;
68455;SDS011;55437;55.046;38.838;2023-04-06T00:33:24;12.48;;;4.65;;
68455;SDS011;55437;55.046;38.838;2023-04-06T00:35:52;9.63;;;4.53;;
68455;SDS011;55437;55.046;38.838;2023-04-06T00:38:17;12.25;;;4.70;;
68455;SDS011;55437;55.046;38.838;2023-04-06T00:40:43;10.35;;;5.05;;
68455;SDS011;55437;55.046;38.838;2023-04-06T00:43:13;10.48;;;4.32;;
68455;SDS011;55437;55.046;38.838;2023-04-06T00:45:40;10.23;;;4.55;;
68455;SDS011;55437;55.046;38.838;2023-04-06T00:48:07;15.43;;;4.95;;
68455;SDS011;55437;55.046;38.838;2023-04-06T00:50:34;9.65;;;4.00;;
68455;SDS011;55437;55.046;38.838;2023-04-06T00:53:00;10.43;;;4.65;;
68455;SDS011;55437;55.046;38.838;2023-04-06T00:55:30;11.13;;;5.07;;
68455;SDS011;55437;55.046;38.838;2023-04-06T00:57:59;10.00;;;5.10;;
68455;SDS011;55437;55.046;38.838;2023-04-06T01:03:49;9.48;;;4.50;;
68455;SDS011;55437;55.046;38.838;2023-04-06T01:06:17;11.98;;;5.38;;
68455;SDS011;55437;55.046;38.838;2023-04-06T01:08:46;11.32;;;4.78;;
68455;SDS011;55437;55.046;38.838;2023-04-06T01:11:17;12.73;;;5.00;;
68455;SDS011;55437;55.046;38.838;2023-04-06T01:13:44;10.60;;;4.60;;
68455;SDS011;55437;55.046;38.838;2023-04-06T01:16:19;9.43;;;4.45;;
68455;SDS011;55437;55.046;38.838;2023-04-06T01:18:58;9.63;;;4.30;;
68455;SDS011;55437;55.046;38.838;2023-04-06T01:21:28;11.35;;;5.03;;
68455;SDS011;55437;55.046;38.838;2023-04-06T01:24:18;11.02;;;4.78;;
68455;SDS011;55437;55.046;38.838;2023-04-06T01:30:25;9.52;;;4.25;;
68455;SDS011;55437;55.046;38.838;2023-04-06T01:33:16;13.30;;;4.53;;
68455;SDS011;55437;55.046;38.838;2023-04-06T01:35:58;12.07;;;5.05;;
68455;SDS011;55437;55.046;38.838;2023-04-06T01:38:28;12.00;;;4.40;;
68455;SDS011;55437;55.046;38.838;2023-04-06T01:40:54;13.13;;;4.75;;
68455;SDS011;55437;55.046;38.838;2023-04-06T01:43:22;17.10;;;4.60;;
68455;SDS011;55437;55.046;38.838;2023-04-06T01:46:03;12.13;;;4.88;;
68455;SDS011;55437;55.046;38.838;2023-04-06T01:48:34;12.02;;;4.72;;
68455;SDS011;55437;55.046;38.838;2023-04-06T01:51:08;12.32;;;4.53;;
68455;SDS011;55437;55.046;38.838;2023-04-06T01:56:11;10.95;;;4.40;;
68455;SDS011;55437;55.046;38.838;2023-04-06T01:58:42;10.88;;;5.18;;
68455;SDS011;55437;55.046;38.838;2023-04-06T02:01:10;12.75;;;5.00;;
68455;SDS011;55437;55.046;38.838;2023-04-06T02:03:48;13.75;;;5.32;;
68455;SDS011;55437;55.046;38.838;2023-04-06T02:06:15;17.05;;;5.32;;
68455;SDS011;55437;55.046;38.838;2023-04-06T02:08:41;19.40;;;6.78;;
68455;SDS011;55437;55.046;38.838;2023-04-06T02:11:07;13.45;;;5.15;;
68455;SDS011;55437;55.046;38.838;2023-04-06T02:13:40;17.90;;;5.07;;
68455;SDS011;55437;55.046;38.838;2023-04-06T02:16:07;12.07;;;5.22;;
68455;SDS011;55437;55.046;38.838;2023-04-06T02:18:33;11.55;;;4.93;;
68455;SDS011;55437;55.046;38.838;2023-04-06T02:21:17;16.35;;;6.00;;
68455;SDS011;55437;55.046;38.838;2023-04-06T02:23:46;12.57;;;7.45;;
68455;SDS011;55437;55.046;38.838;2023-04-06T02:26:13;13.13;;;5.30;;
68455;SDS011;55437;55.046;38.838;2023-04-06T02:28:40;11.45;;;4.93;;
68455;SDS011;55437;55.046;38.838;2023-04-06T02:31:07;9.77;;;4.55;;
68455;SDS011;55437;55.046;38.838;2023-04-06T02:33:34;11.18;;;4.85;;
68455;SDS011;55437;55.046;38.838;2023-04-06T02:36:00;11.43;;;5.55;;
68455;SDS011;55437;55.046;38.838;2023-04-06T02:38:27;11.73;;;4.78;;
68455;SDS011;55437;55.046;38.838;2023-04-06T02:40:53;10.32;;;4.30;;
68455;SDS011;55437;55.046;38.838;2023-04-06T02:43:23;10.27;;;4.55;;
68455;SDS011;55437;55.046;38.838;2023-04-06T02:45:53;11.43;;;4.85;;
68455;SDS011;55437;55.046;38.838;2023-04-06T02:48:24;11.52;;;4.70;;
68455;SDS011;55437;55.046;38.838;2023-04-06T02:50:51;9.65;;;4.63;;
68455;SDS011;55437;55.046;38.838;2023-04-06T02:53:18;13.40;;;4.72;;
68455;SDS011;55437;55.046;38.838;2023-04-06T02:55:44;11.40;;;5.07;;
68455;SDS011;55437;55.046;38.838;2023-04-06T02:58:10;10.05;;;4.78;;
68455;SDS011;55437;55.046;38.838;2023-04-06T03:00:48;10.60;;;4.97;;
68455;SDS011;55437;55.046;38.838;2023-04-06T03:03:14;10.20;;;5.32;;
68455;SDS011;55437;55.046;38.838;2023-04-06T03:05:42;11.60;;;5.18;;
68455;SDS011;55437;55.046;38.838;2023-04-06T03:08:13;12.18;;;4.35;;
68455;SDS011;55437;55.046;38.838;2023-04-06T03:10:44;9.35;;;4.05;;
68455;SDS011;55437;55.046;38.838;2023-04-06T03:13:11;11.15;;;4.60;;
68455;SDS011;55437;55.046;38.838;2023-04-06T03:15:52;11.13;;;4.03;;
68455;SDS011;55437;55.046;38.838;2023-04-06T03:18:21;12.60;;;4.40;;
68455;SDS011;55437;55.046;38.838;2023-04-06T03:20:49;11.18;;;4.38;;
68455;SDS011;55437;55.046;38.838;2023-04-06T03:23:18;9.38;;;4.50;;
68455;SDS011;55437;55.046;38.838;2023-04-06T03:25:50;10.98;;;4.65;;
68455;SDS011;55437;55.046;38.838;2023-04-06T03:28:18;9.45;;;4.65;;
68455;SDS011;55437;55.046;38.838;2023-04-06T03:31:01;14.93;;;4.05;;
68455;SDS011;55437;55.046;38.838;2023-04-06T03:33:46;13.10;;;4.18;;
68455;SDS011;55437;55.046;38.838;2023-04-06T03:36:19;9.57;;;3.88;;
68455;SDS011;55437;55.046;38.838;2023-04-06T03:38:48;13.55;;;4.65;;
68455;SDS011;55437;55.046;38.838;2023-04-06T03:41:15;13.85;;;4.28;;
68455;SDS011;55437;55.046;38.838;2023-04-06T03:43:52;10.15;;;4.65;;
68455;SDS011;55437;55.046;38.838;2023-04-06T03:46:18;14.25;;;4.57;;
68455;SDS011;55437;55.046;38.838;2023-04-06T03:48:48;11.95;;;4.90;;
68455;SDS011;55437;55.046;38.838;2023-04-06T03:51:16;11.73;;;4.57;;
68455;SDS011;55437;55.046;38.838;2023-04-06T03:53:42;11.25;;;4.07;;
68455;SDS011;55437;55.046;38.838;2023-04-06T03:56:09;12.30;;;5.47;;
68455;SDS011;55437;55.046;38.838;2023-04-06T03:58:36;11.27;;;4.60;;
68455;SDS011;55437;55.046;38.838;2023-04-06T04:01:03;12.25;;;5.85;;
68455;SDS011;55437;55.046;38.838;2023-04-06T04:03:33;11.32;;;4.57;;
68455;SDS011;55437;55.046;38.838;2023-04-06T04:05:59;14.13;;;5.53;;
68455;SDS011;55437;55.046;38.838;2023-04-06T04:11:19;11.10;;;3.65;;
68455;SDS011;55437;55.046;38.838;2023-04-06T04:14:39;12.52;;;4.65;;
68455;SDS011;55437;55.046;38.838;2023-04-06T04:17:37;16.73;;;4.70;;
68455;SDS011;55437;55.046;38.838;2023-04-06T04:20:29;9.85;;;4.57;;
68455;SDS011;55437;55.046;38.838;2023-04-06T04:22:56;10.93;;;4.88;;
68455;SDS011;55437;55.046;38.838;2023-04-06T04:25:26;10.85;;;4.43;;
68455;SDS011;55437;55.046;38.838;2023-04-06T04:28:17;10.23;;;3.67;;
68455;SDS011;55437;55.046;38.838;2023-04-06T04:30:46;10.75;;;3.97;;
68455;SDS011;55437;55.046;38.838;2023-04-06T04:33:13;10.68;;;4.60;;
68455;SDS011;55437;55.046;38.838;2023-04-06T04:35:42;10.30;;;4.38;;
68455;SDS011;55437;55.046;38.838;2023-04-06T04:38:11;12.27;;;5.05;;
68455;SDS011;55437;55.046;38.838;2023-04-06T04:40:41;12.10;;;6.32;;
68455;SDS011;55437;55.046;38.838;2023-04-06T04:43:08;12.57;;;4.90;;
68455;SDS011;55437;55.046;38.838;2023-04-06T04:45:34;14.38;;;5.38;;
68455;SDS011;55437;55.046;38.838;2023-04-06T04:48:21;12.43;;;4.45;;
68455;SDS011;55437;55.046;38.838;2023-04-06T04:50:57;11.68;;;4.45;;
68455;SDS011;55437;55.046;38.838;2023-04-06T04:53:30;9.70;;;3.65;;
68455;SDS011;55437;55.046;38.838;2023-04-06T04:56:08;10.40;;;4.10;;
68455;SDS011;55437;55.046;38.838;2023-04-06T04:58:34;8.80;;;3.67;;
68455;SDS011;55437;55.046;38.838;2023-04-06T05:01:01;8.55;;;3.83;;
68455;SDS011;55437;55.046;38.838;2023-04-06T05:03:52;16.30;;;4.57;;
68455;SDS011;55437;55.046;38.838;2023-04-06T05:06:18;10.00;;;3.95;;
68455;SDS011;55437;55.046;38.838;2023-04-06T05:08:44;10.60;;;3.80;;
68455;SDS011;55437;55.046;38.838;2023-04-06T05:11:11;12.05;;;3.47;;
68455;SDS011;55437;55.046;38.838;2023-04-06T05:13:43;16.98;;;4.82;;
68455;SDS011;55437;55.046;38.838;2023-04-06T05:16:27;10.02;;;3.78;;
68455;SDS011;55437;55.046;38.838;2023-04-06T05:18:57;9.45;;;3.20;;
68455;SDS011;55437;55.046;38.838;2023-04-06T05:21:30;9.88;;;4.55;;
68455;SDS011;55437;55.046;38.838;2023-04-06T05:24:04;11.07;;;3.92;;
68455;SDS011;55437;55.046;38.838;2023-04-06T05:26:33;10.25;;;4.28;;
68455;SDS011;55437;55.046;38.838;2023-04-06T05:29:09;10.02;;;3.65;;
68455;SDS011;55437;55.046;38.838;2023-04-06T05:31:37;12.20;;;4.20;;
68455;SDS011;55437;55.046;38.838;2023-04-06T05:34:04;8.95;;;4.07;;
68455;SDS011;55437;55.046;38.838;2023-04-06T05:36:33;10.35;;;3.72;;
68455;SDS011;55437;55.046;38.838;2023-04-06T05:39:08;12.90;;;5.25;;
68455;SDS011;55437;55.046;38.838;2023-04-06T05:41:42;11.20;;;4.05;;
68455;SDS011;55437;55.046;38.838;2023-04-06T05:44:36;13.25;;;4.93;;
68455;SDS011;55437;55.046;38.838;2023-04-06T05:47:09;15.07;;;3.85;;
68455;SDS011;55437;55.046;38.838;2023-04-06T05:50:14;12.10;;;4.00;;
68455;SDS011;55437;55.046;38.838;2023-04-06T05:52:41;13.85;;;5.00;;
68455;SDS011;55437;55.046;38.838;2023-04-06T05:55:11;14.32;;;3.83;;
68455;SDS011;55437;55.046;38.838;2023-04-06T05:58:19;9.15;;;3.78;;
68455;SDS011;55437;55.046;38.838;2023-04-06T06:00:49;9.68;;;3.13;;
68455;SDS011;55437;55.046;38.838;2023-04-06T06:03:16;9.95;;;3.88;;
68455;SDS011;55437;55.046;38.838;2023-04-06T06:05:48;18.55;;;4.45;;
68455;SDS011;55437;55.046;38.838;2023-04-06T06:08:23;10.15;;;3.28;;
68455;SDS011;55437;55.046;38.838;2023-04-06T06:10:50;12.32;;;3.40;;
68455;SDS011;55437;55.046;38.838;2023-04-06T06:13:19;9.38;;;3.92;;
68455;SDS011;55437;55.046;38.838;2023-04-06T06:15:45;9.63;;;3.72;;
68455;SDS011;55437;55.046;38.838;2023-04-06T06:18:13;18.95;;;3.38;;
68455;SDS011;55437;55.046;38.838;2023-04-06T06:26:32;12.73;;;3.67;;
68455;SDS011;55437;55.046;38.838;2023-04-06T06:32:24;10.05;;;4.07;;
68455;SDS011;55437;55.046;38.838;2023-04-06T06:34:54;12.30;;;3.38;;
68455;SDS011;55437;55.046;38.838;2023-04-06T06:40:10;16.63;;;4.78;;
68455;SDS011;55437;55.046;38.838;2023-04-06T06:45:50;12.07;;;4.22;;
68455;SDS011;55437;55.046;38.838;2023-04-06T06:48:16;15.95;;;4.07;;
68455;SDS011;55437;55.046;38.838;2023-04-06T06:50:50;16.55;;;4.70;;
68455;SDS011;55437;55.046;38.838;2023-04-06T06:53:59;11.07;;;4.97;;
68455;SDS011;55437;55.046;38.838;2023-04-06T06:56:34;13.55;;;4.45;;
68455;SDS011;55437;55.046;38.838;2023-04-06T06:59:03;15.27;;;3.30;;
68455;SDS011;55437;55.046;38.838;2023-04-06T07:01:47;11.25;;;3.15;;
68455;SDS011;55437;55.046;38.838;2023-04-06T07:07:22;10.98;;;4.22;;
68455;SDS011;55437;55.046;38.838;2023-04-06T07:10:10;12.15;;;3.65;;
68455;SDS011;55437;55.046;38.838;2023-04-06T07:15:49;9.38;;;3.75;;
68455;SDS011;55437;55.046;38.838;2023-04-06T07:18:17;14.93;;;6.50;;
68455;SDS011;55437;55.046;38.838;2023-04-06T07:20:44;15.88;;;5.40;;
68455;SDS011;55437;55.046;38.838;2023-04-06T07:23:10;13.65;;;3.42;;
68455;SDS011;55437;55.046;38.838;2023-04-06T07:25:39;15.20;;;4.90;;
68455;SDS011;55437;55.046;38.838;2023-04-06T07:28:09;21.85;;;7.18;;
68455;SDS011;55437;55.046;38.838;2023-04-06T07:30:36;12.98;;;3.95;;
68455;SDS011;55437;55.046;38.838;2023-04-06T07:33:10;10.13;;;3.75;;
68455;SDS011;55437;55.046;38.838;2023-04-06T07:36:03;12.68;;;3.85;;
68455;SDS011;55437;55.046;38.838;2023-04-06T07:38:39;13.45;;;3.95;;
68455;SDS011;55437;55.046;38.838;2023-04-06T07:41:13;9.25;;;3.80;;
68455;SDS011;55437;55.046;38.838;2023-04-06T07:46:43;15.57;;;3.78;;
68455;SDS011;55437;55.046;38.838;2023-04-06T07:49:13;14.52;;;4.50;;
68455;SDS011;55437;55.046;38.838;2023-04-06T07:51:42;16.88;;;4.60;;
68455;SDS011;55437;55.046;38.838;2023-04-06T07:54:08;18.45;;;4.20;;
68455;SDS011;55437;55.046;38.838;2023-04-06T07:56:33;13.90;;;3.80;;
68455;SDS011;55437;55.046;38.838;2023-04-06T07:58:59;16.55;;;5.78;;
68455;SDS011;55437;55.046;38.838;2023-04-06T08:01:44;11.48;;;4.38;;
68455;SDS011;55437;55.046;38.838;2023-04-06T08:04:10;11.85;;;3.33;;
68455;SDS011;55437;55.046;38.838;2023-04-06T08:07:01;11.57;;;3.35;;
68455;SDS011;55437;55.046;38.838;2023-04-06T08:09:30;14.30;;;4.55;;
68455;SDS011;55437;55.046;38.838;2023-04-06T08:11:59;11.20;;;3.42;;
68455;SDS011;55437;55.046;38.838;2023-04-06T08:14:31;11.27;;;4.40;;
68455;SDS011;55437;55.046;38.838;2023-04-06T08:17:02;14.48;;;6.22;;
68455;SDS011;55437;55.046;38.838;2023-04-06T08:21:57;14.48;;;4.22;;
68455;SDS011;55437;55.046;38.838;2023-04-06T08:24:30;18.15;;;6.65;;
68455;SDS011;55437;55.046;38.838;2023-04-06T08:26:57;11.40;;;3.67;;
68455;SDS011;55437;55.046;38.838;2023-04-06T08:29:23;18.20;;;7.40;;
68455;SDS011;55437;55.046;38.838;2023-04-06T08:31:49;8.60;;;2.95;;
68455;SDS011;55437;55.046;38.838;2023-04-06T08:34:20;12.88;;;4.75;;
68455;SDS011;55437;55.046;38.838;2023-04-06T08:36:49;13.98;;;3.33;;
68455;SDS011;55437;55.046;38.838;2023-04-06T08:39:23;10.52;;;5.07;;
68455;SDS011;55437;55.046;38.838;2023-04-06T08:41:51;9.90;;;2.92;;
68455;SDS011;55437;55.046;38.838;2023-04-06T08:44:21;9.63;;;2.90;;
68455;SDS011;55437;55.046;38.838;2023-04-06T08:46:48;13.38;;;3.88;;
68455;SDS011;55437;55.046;38.838;2023-04-06T08:49:19;14.07;;;3.20;;
68455;SDS011;55437;55.046;38.838;2023-04-06T08:51:51;11.10;;;3.15;;
68455;SDS011;55437;55.046;38.838;2023-04-06T08:54:17;13.07;;;4.25;;
68455;SDS011;55437;55.046;38.838;2023-04-06T08:56:43;15.65;;;4.53;;
68455;SDS011;55437;55.046;38.838;2023-04-06T08:59:10;10.27;;;3.83;;
68455;SDS011;55437;55.046;38.838;2023-04-06T09:01:39;9.60;;;2.83;;
68455;SDS011;55437;55.046;38.838;2023-04-06T09:04:14;10.10;;;3.60;;
68455;SDS011;55437;55.046;38.838;2023-04-06T09:07:00;17.10;;;3.67;;
68455;SDS011;55437;55.046;38.838;2023-04-06T09:09:30;12.75;;;4.40;;
68455;SDS011;55437;55.046;38.838;2023-04-06T09:11:57;11.43;;;4.05;;
68455;SDS011;55437;55.046;38.838;2023-04-06T09:14:33;14.35;;;3.00;;
68455;SDS011;55437;55.046;38.838;2023-04-06T09:20:28;18.73;;;3.13;;
68455;SDS011;55437;55.046;38.838;2023-04-06T09:23:19;8.43;;;2.80;;
68455;SDS011;55437;55.046;38.838;2023-04-06T09:25:45;13.23;;;4.38;;
68455;SDS011;55437;55.046;38.838;2023-04-06T09:28:11;14.07;;;4.18;;
68455;SDS011;55437;55.046;38.838;2023-04-06T09:31:10;19.98;;;5.35;;
68455;SDS011;55437;55.046;38.838;2023-04-06T09:33:40;11.10;;;4.00;;
68455;SDS011;55437;55.046;38.838;2023-04-06T09:36:32;10.00;;;3.45;;
68455;SDS011;55437;55.046;38.838;2023-04-06T09:39:03;10.85;;;3.70;;
68455;SDS011;55437;55.046;38.838;2023-04-06T09:41:35;9.27;;;2.53;;
68455;SDS011;55437;55.046;38.838;2023-04-06T09:44:05;10.80;;;2.95;;
68455;SDS011;55437;55.046;38.838;2023-04-06T09:46:39;13.30;;;3.22;;
68455;SDS011;55437;55.046;38.838;2023-04-06T09:49:06;11.63;;;3.65;;
68455;SDS011;55437;55.046;38.838;2023-04-06T09:51:37;10.20;;;3.17;;
68455;SDS011;55437;55.046;38.838;2023-04-06T09:54:23;7.45;;;3.17;;
68455;SDS011;55437;55.046;38.838;2023-04-06T10:05:40;12.00;;;2.90;;
68455;SDS011;55437;55.046;38.838;2023-04-06T10:08:11;10.15;;;2.70;;
68455;SDS011;55437;55.046;38.838;2023-04-06T10:10:39;9.13;;;2.63;;
68455;SDS011;55437;55.046;38.838;2023-04-06T10:13:05;10.77;;;2.38;;
68455;SDS011;55437;55.046;38.838;2023-04-06T10:18:19;11.40;;;3.47;;
68455;SDS011;55437;55.046;38.838;2023-04-06T10:21:15;10.48;;;2.65;;
68455;SDS011;55437;55.046;38.838;2023-04-06T10:24:07;11.15;;;3.70;;
68455;SDS011;55437;55.046;38.838;2023-04-06T10:29:40;13.25;;;3.08;;
68455;SDS011;55437;55.046;38.838;2023-04-06T10:32:34;11.98;;;3.05;;
68455;SDS011;55437;55.046;38.838;2023-04-06T10:35:11;13.30;;;3.03;;
68455;SDS011;55437;55.046;38.838;2023-04-06T10:37:50;8.80;;;2.72;;
68455;SDS011;55437;55.046;38.838;2023-04-06T10:40:23;9.32;;;2.70;;
68455;SDS011;55437;55.046;38.838;2023-04-06T10:42:54;12.45;;;3.28;;
68455;SDS011;55437;55.046;38.838;2023-04-06T10:45:24;7.15;;;2.55;;
68455;SDS011;55437;55.046;38.838;2023-04-06T10:47:52;9.65;;;2.70;;
68455;SDS011;55437;55.046;38.838;2023-04-06T10:50:20;8.95;;;2.20;;
68455;SDS011;55437;55.046;38.838;2023-04-06T10:53:19;9.23;;;2.55;;
68455;SDS011;55437;55.046;38.838;2023-04-06T10:55:49;13.77;;;2.88;;
68455;SDS011;55437;55.046;38.838;2023-04-06T10:58:25;8.48;;;3.00;;
68455;SDS011;55437;55.046;38.838;2023-04-06T11:00:51;10.02;;;2.40;;
68455;SDS011;55437;55.046;38.838;2023-04-06T11:03:18;11.93;;;3.15;;
68455;SDS011;55437;55.046;38.838;2023-04-06T11:05:44;7.05;;;2.63;;
68455;SDS011;55437;55.046;38.838;2023-04-06T11:08:31;9.38;;;2.97;;
68455;SDS011;55437;55.046;38.838;2023-04-06T11:13:56;8.32;;;2.92;;
68455;SDS011;55437;55.046;38.838;2023-04-06T11:19:31;9.50;;;3.28;;
68455;SDS011;55437;55.046;38.838;2023-04-06T11:22:05;11.80;;;3.60;;
68455;SDS011;55437;55.046;38.838;2023-04-06T11:24:33;12.75;;;3.90;;
68455;SDS011;55437;55.046;38.838;2023-04-06T11:30:29;15.95;;;4.68;;
68455;SDS011;55437;55.046;38.838;2023-04-06T11:33:01;10.13;;;3.80;;
68455;SDS011;55437;55.046;38.838;2023-04-06T11:35:28;11.07;;;3.90;;
68455;SDS011;55437;55.046;38.838;2023-04-06T11:38:22;10.85;;;3.00;;
68455;SDS011;55437;55.046;38.838;2023-04-06T11:40:52;10.95;;;2.80;;
68455;SDS011;55437;55.046;38.838;2023-04-06T11:46:04;12.48;;;3.70;;
68455;SDS011;55437;55.046;38.838;2023-04-06T11:51:52;8.38;;;2.63;;
68455;SDS011;55437;55.046;38.838;2023-04-06T11:54:29;7.95;;;2.60;;
68455;SDS011;55437;55.046;38.838;2023-04-06T11:56:59;10.02;;;2.67;;
68455;SDS011;55437;55.046;38.838;2023-04-06T11:59:26;9.35;;;2.88;;
68455;SDS011;55437;55.046;38.838;2023-04-06T12:01:53;11.90;;;3.05;;
68455;SDS011;55437;55.046;38.838;2023-04-06T12:04:45;10.80;;;2.83;;
68455;SDS011;55437;55.046;38.838;2023-04-06T12:07:11;11.70;;;3.63;;
68455;SDS011;55437;55.046;38.838;2023-04-06T12:09:37;8.95;;;3.17;;
68455;SDS011;55437;55.046;38.838;2023-04-06T12:12:03;8.68;;;2.63;;
68455;SDS011;55437;55.046;38.838;2023-04-06T12:14:29;8.52;;;3.17;;
68455;SDS011;55437;55.046;38.838;2023-04-06T12:17:45;9.13;;;2.53;;
68455;SDS011;55437;55.046;38.838;2023-04-06T12:20:11;8.68;;;2.80;;
68455;SDS011;55437;55.046;38.838;2023-04-06T12:22:38;11.00;;;3.38;;
68455;SDS011;55437;55.046;38.838;2023-04-06T12:25:04;12.20;;;3.10;;
68455;SDS011;55437;55.046;38.838;2023-04-06T12:28:07;10.35;;;3.28;;
68455;SDS011;55437;55.046;38.838;2023-04-06T12:30:36;10.80;;;2.65;;
68455;SDS011;55437;55.046;38.838;2023-04-06T12:36:22;10.65;;;2.88;;
68455;SDS011;55437;55.046;38.838;2023-04-06T12:38:50;14.40;;;3.22;;
68455;SDS011;55437;55.046;38.838;2023-04-06T12:41:17;9.52;;;2.70;;
68455;SDS011;55437;55.046;38.838;2023-04-06T12:43:44;10.75;;;2.40;;
68455;SDS011;55437;55.046;38.838;2023-04-06T12:46:11;9.90;;;2.60;;
68455;SDS011;55437;55.046;38.838;2023-04-06T12:48:37;9.65;;;3.80;;
68455;SDS011;55437;55.046;38.838;2023-04-06T12:51:04;7.40;;;2.63;;
68455;SDS011;55437;55.046;38.838;2023-04-06T12:53:49;11.40;;;3.03;;
68455;SDS011;55437;55.046;38.838;2023-04-06T12:56:16;14.30;;;3.20;;
68455;SDS011;55437;55.046;38.838;2023-04-06T12:58:51;17.17;;;2.60;;
68455;SDS011;55437;55.046;38.838;2023-04-06T13:01:17;8.68;;;3.10;;
68455;SDS011;55437;55.046;38.838;2023-04-06T13:03:43;9.45;;;2.67;;
68455;SDS011;55437;55.046;38.838;2023-04-06T13:06:11;11.32;;;2.88;;
68455;SDS011;55437;55.046;38.838;2023-04-06T13:08:39;9.45;;;2.58;;
68455;SDS011;55437;55.046;38.838;2023-04-06T13:11:08;8.43;;;2.20;;
68455;SDS011;55437;55.046;38.838;2023-04-06T13:13:35;8.25;;;2.60;;
68455;SDS011;55437;55.046;38.838;2023-04-06T13:18:56;10.80;;;2.38;;
68455;SDS011;55437;55.046;38.838;2023-04-06T13:21:23;14.95;;;2.75;;
68455;SDS011;55437;55.046;38.838;2023-04-06T13:23:51;9.85;;;3.75;;
68455;SDS011;55437;55.046;38.838;2023-04-06T13:26:18;8.98;;;2.53;;
68455;SDS011;55437;55.046;38.838;2023-04-06T13:28:45;9.35;;;2.60;;
68455;SDS011;55437;55.046;38.838;2023-04-06T13:31:32;10.68;;;2.83;;
68455;SDS011;55437;55.046;38.838;2023-04-06T13:34:07;8.20;;;3.30;;
68455;SDS011;55437;55.046;38.838;2023-04-06T13:36:37;19.48;;;3.67;;
68455;SDS011;55437;55.046;38.838;2023-04-06T13:41:59;8.85;;;2.78;;
68455;SDS011;55437;55.046;38.838;2023-04-06T13:44:44;7.75;;;2.47;;
68455;SDS011;55437;55.046;38.838;2023-04-06T13:47:31;10.15;;;2.42;;
68455;SDS011;55437;55.046;38.838;2023-04-06T13:50:15;8.55;;;2.42;;
68455;SDS011;55437;55.046;38.838;2023-04-06T13:52:43;9.85;;;2.53;;
68455;SDS011;55437;55.046;38.838;2023-04-06T13:55:08;8.52;;;2.33;;
68455;SDS011;55437;55.046;38.838;2023-04-06T13:57:37;7.93;;;2.85;;
68455;SDS011;55437;55.046;38.838;2023-04-06T14:00:03;7.38;;;3.20;;
68455;SDS011;55437;55.046;38.838;2023-04-06T14:02:34;13.70;;;2.83;;
68455;SDS011;55437;55.046;38.838;2023-04-06T14:05:00;16.90;;;3.30;;
68455;SDS011;55437;55.046;38.838;2023-04-06T14:07:51;8.38;;;2.40;;
68455;SDS011;55437;55.046;38.838;2023-04-06T14:10:21;8.32;;;2.65;;
68455;SDS011;55437;55.046;38.838;2023-04-06T14:12:49;14.00;;;3.53;;
68455;SDS011;55437;55.046;38.838;2023-04-06T14:15:17;8.68;;;3.15;;
68455;SDS011;55437;55.046;38.838;2023-04-06T14:17:48;10.43;;;2.80;;
68455;SDS011;55437;55.046;38.838;2023-04-06T14:20:15;7.43;;;2.63;;
68455;SDS011;55437;55.046;38.838;2023-04-06T14:22:41;6.15;;;2.13;;
68455;SDS011;55437;55.046;38.838;2023-04-06T14:28:06;10.13;;;2.70;;
68455;SDS011;55437;55.046;38.838;2023-04-06T14:33:18;10.82;;;2.60;;
68455;SDS011;55437;55.046;38.838;2023-04-06T14:35:44;6.70;;;2.70;;
68455;SDS011;55437;55.046;38.838;2023-04-06T14:38:10;12.35;;;3.50;;
68455;SDS011;55437;55.046;38.838;2023-04-06T14:41:26;14.57;;;3.47;;
68455;SDS011;55437;55.046;38.838;2023-04-06T14:47:09;9.40;;;2.42;;
68455;SDS011;55437;55.046;38.838;2023-04-06T14:49:34;10.55;;;2.88;;
68455;SDS011;55437;55.046;38.838;2023-04-06T14:54:52;16.10;;;4.32;;
68455;SDS011;55437;55.046;38.838;2023-04-06T14:57:25;14.23;;;3.20;;
68455;SDS011;55437;55.046;38.838;2023-04-06T14:59:54;11.18;;;3.40;;
68455;SDS011;55437;55.046;38.838;2023-04-06T15:04:52;12.60;;;3.60;;
68455;SDS011;55437;55.046;38.838;2023-04-06T15:07:23;13.95;;;3.70;;
68455;SDS011;55437;55.046;38.838;2023-04-06T15:09:50;12.68;;;4.30;;
68455;SDS011;55437;55.046;38.838;2023-04-06T15:12:16;16.77;;;4.90;;
68455;SDS011;55437;55.046;38.838;2023-04-06T15:14:42;14.80;;;3.90;;
68455;SDS011;55437;55.046;38.838;2023-04-06T15:17:09;10.82;;;3.28;;
68455;SDS011;55437;55.046;38.838;2023-04-06T15:20:01;11.93;;;3.67;;
68455;SDS011;55437;55.046;38.838;2023-04-06T15:22:31;14.95;;;3.30;;
68455;SDS011;55437;55.046;38.838;2023-04-06T15:24:57;10.10;;;3.08;;
68455;SDS011;55437;55.046;38.838;2023-04-06T15:27:49;8.52;;;2.83;;
68455;SDS011;55437;55.046;38.838;2023-04-06T15:30:18;11.57;;;3.72;;
68455;SDS011;55437;55.046;38.838;2023-04-06T15:32:51;14.50;;;3.55;;
68455;SDS011;55437;55.046;38.838;2023-04-06T15:35:21;11.48;;;3.30;;
68455;SDS011;55437;55.046;38.838;2023-04-06T15:37:47;13.05;;;4.50;;
68455;SDS011;55437;55.046;38.838;2023-04-06T15:40:13;9.88;;;3.28;;
68455;SDS011;55437;55.046;38.838;2023-04-06T15:42:42;11.25;;;3.50;;
68455;SDS011;55437;55.046;38.838;2023-04-06T15:45:09;12.93;;;3.80;;
68455;SDS011;55437;55.046;38.838;2023-04-06T15:47:37;11.07;;;3.00;;
68455;SDS011;55437;55.046;38.838;2023-04-06T15:50:09;11.95;;;3.22;;
68455;SDS011;55437;55.046;38.838;2023-04-06T15:52:37;11.95;;;3.95;;
68455;SDS011;55437;55.046;38.838;2023-04-06T15:55:04;9.70;;;3.30;;
68455;SDS011;55437;55.046;38.838;2023-04-06T15:57:34;8.10;;;2.70;;
68455;SDS011;55437;55.046;38.838;2023-04-06T16:00:00;9.30;;;2.65;;
68455;SDS011;55437;55.046;38.838;2023-04-06T16:02:35;16.25;;;3.47;;
68455;SDS011;55437;55.046;38.838;2023-04-06T16:05:01;9.55;;;3.10;;
68455;SDS011;55437;55.046;38.838;2023-04-06T16:07:29;12.65;;;3.50;;
68455;SDS011;55437;55.046;38.838;2023-04-06T16:10:00;14.60;;;4.75;;
68455;SDS011;55437;55.046;38.838;2023-04-06T16:16:11;30.52;;;9.48;;
68455;SDS011;55437;55.046;38.838;2023-04-06T16:18:38;18.83;;;5.82;;
68455;SDS011;55437;55.046;38.838;2023-04-06T16:21:05;15.52;;;5.30;;
68455;SDS011;55437;55.046;38.838;2023-04-06T16:23:34;17.88;;;5.03;;
68455;SDS011;55437;55.046;38.838;2023-04-06T16:26:00;19.42;;;5.68;;
68455;SDS011;55437;55.046;38.838;2023-04-06T16:28:26;22.63;;;5.78;;
68455;SDS011;55437;55.046;38.838;2023-04-06T16:30:58;21.50;;;5.20;;
68455;SDS011;55437;55.046;38.838;2023-04-06T16:33:24;17.00;;;3.85;;